createdAt,value
2023-04-12T00:02:42.735Z,13.64
2023-04-12T00:07:47.118Z,13.61
2023-04-12T00:12:49.783Z,13.82
2023-04-12T00:17:52.013Z,13.43
2023-04-12T00:22:54.180Z,12.32
2023-04-12T00:27:56.538Z,12.13
2023-04-12T00:32:59.770Z,11.92
2023-04-12T00:38:03.987Z,11.82
2023-04-12T00:43:06.098Z,12.30
2023-04-12T00:48:08.559Z,12.29
2023-04-12T00:53:13.878Z,11.91
2023-04-12T00:58:16.892Z,12.26
2023-04-12T01:03:24.353Z,12.08
2023-04-12T01:08:40.894Z,12.13
2023-04-12T01:13:49.857Z,12.18
2023-04-12T01:18:54.366Z,11.85
2023-04-12T01:24:14.988Z,11.91
2023-04-12T01:29:20.028Z,12.37
2023-04-12T01:34:25.270Z,12.37
2023-04-12T01:39:28.675Z,11.85
2023-04-12T01:44:30.859Z,11.83
2023-04-12T01:49:43.499Z,11.36
2023-04-12T01:54:51.422Z,11.84
2023-04-12T01:59:57.295Z,12.18
2023-04-12T02:05:01.120Z,12.14
2023-04-12T02:10:03.716Z,11.82
2023-04-12T02:15:08.397Z,10.83
2023-04-12T02:20:12.199Z,11.20
2023-04-12T02:25:15.798Z,10.97
2023-04-12T02:30:18.205Z,11.14
2023-04-12T02:35:20.521Z,11.49
2023-04-12T02:40:22.923Z,11.63
2023-04-12T02:45:25.035Z,11.78
2023-04-12T02:50:27.347Z,11.91
2023-04-12T02:55:30.908Z,11.83
2023-04-12T03:00:33.176Z,11.69
2023-04-12T03:05:35.316Z,11.74
2023-04-12T03:10:37.475Z,11.23
2023-04-12T03:15:40.178Z,11.17
2023-04-12T03:20:46.810Z,10.73
2023-04-12T03:25:49.584Z,11.39
2023-04-12T03:30:51.832Z,11.17
2023-04-12T03:35:54.113Z,11.43
2023-04-12T03:40:56.243Z,11.80
2023-04-12T03:45:58.693Z,11.92
2023-04-12T03:51:08.732Z,12.17
2023-04-12T03:56:10.827Z,12.15
2023-04-12T04:01:14.224Z,12.16
2023-04-12T04:06:17.823Z,12.31
2023-04-12T04:11:19.888Z,12.06
2023-04-12T04:16:22.098Z,11.74
2023-04-12T04:21:24.370Z,11.94
2023-04-12T04:26:32.779Z,11.99
2023-04-12T04:31:34.960Z,11.71
2023-04-12T04:36:38.339Z,12.11
2023-04-12T04:41:41.671Z,12.40
2023-04-12T04:46:43.918Z,12.61
2023-04-12T04:51:46.239Z,12.52
2023-04-12T04:56:48.431Z,12.62
2023-04-12T05:01:52.779Z,12.82
2023-04-12T05:06:55.123Z,12.86
2023-04-12T05:11:57.232Z,13.09
2023-04-12T05:16:59.532Z,13.07
2023-04-12T05:22:01.785Z,13.03
2023-04-12T05:27:04.058Z,13.13
2023-04-12T05:32:06.345Z,13.32
2023-04-12T05:37:08.586Z,13.66
2023-04-12T05:42:10.821Z,13.82
2023-04-12T05:47:12.961Z,14.06
2023-04-12T05:52:15.151Z,14.27
2023-04-12T05:57:18.058Z,14.49
2023-04-12T06:02:20.407Z,14.58
2023-04-12T06:07:22.724Z,14.73
2023-04-12T06:12:24.982Z,14.80
2023-04-12T06:17:27.052Z,14.56
2023-04-12T06:22:29.207Z,14.57
2023-04-12T06:27:31.502Z,14.51
2023-04-12T06:32:34.264Z,14.87
2023-04-12T06:37:36.467Z,14.92
2023-04-12T06:42:39.007Z,15.10
2023-04-12T06:47:41.148Z,15.40
2023-04-12T06:52:43.370Z,15.44
2023-04-12T06:57:46.850Z,15.53
2023-04-12T07:02:49.497Z,15.78
2023-04-12T07:07:51.694Z,15.71
2023-04-12T07:12:53.871Z,15.09
2023-04-12T07:17:56.635Z,15.24
2023-04-12T07:22:59.010Z,15.66
2023-04-12T07:28:01.126Z,15.68
2023-04-12T07:33:18.661Z,15.71
2023-04-12T07:38:22.144Z,16.06
2023-04-12T07:43:24.349Z,16.37
2023-04-12T07:48:26.910Z,16.37
2023-04-12T07:53:29.486Z,16.82
2023-04-12T07:58:32.972Z,17.08
2023-04-12T08:03:35.229Z,17.34
2023-04-12T08:08:37.443Z,17.61
2023-04-12T08:13:39.651Z,17.40
2023-04-12T08:18:41.924Z,17.70
2023-04-12T08:23:44.138Z,17.94
2023-04-12T08:28:46.416Z,18.01
2023-04-12T08:33:48.572Z,18.16
2023-04-12T08:38:52.823Z,17.98
2023-04-12T08:43:58.690Z,18.37
2023-04-12T08:49:01.141Z,18.68
2023-04-12T08:54:03.353Z,18.43
2023-04-12T08:59:06.822Z,18.54
2023-04-12T09:04:09.438Z,18.93
2023-04-12T09:09:12.006Z,18.96
2023-04-12T09:14:24.638Z,18.97
2023-04-12T09:19:37.280Z,19.02
2023-04-12T09:24:53.253Z,19.29
2023-04-12T09:30:11.013Z,19.60
2023-04-12T09:35:13.102Z,19.70
2023-04-12T09:40:15.264Z,19.92
2023-04-12T09:45:25.891Z,19.69
2023-04-12T09:50:30.649Z,19.95
2023-04-12T09:55:33.024Z,20.07
2023-04-12T10:00:37.179Z,19.92
2023-04-12T10:05:41.550Z,20.11
2023-04-12T10:10:46.828Z,20.75
2023-04-12T10:15:51.368Z,21.05
2023-04-12T10:20:53.678Z,21.40
2023-04-12T10:25:57.496Z,21.56
2023-04-12T10:31:00.322Z,21.77
2023-04-12T10:36:13.396Z,22.05
2023-04-12T10:41:20.990Z,21.91
2023-04-12T10:46:39.570Z,21.85
2023-04-12T10:52:11.151Z,21.63
2023-04-12T10:57:44.436Z,21.84
2023-04-12T11:03:12.938Z,21.45
2023-04-12T11:08:15.822Z,21.41
2023-04-12T11:13:18.071Z,21.68
2023-04-12T11:18:20.393Z,21.77
2023-04-12T11:23:22.775Z,22.32
2023-04-12T11:28:29.241Z,22.80
2023-04-12T11:33:37.312Z,23.08
2023-04-12T11:38:39.696Z,22.76
2023-04-12T11:43:42.877Z,22.84
2023-04-12T11:48:47.305Z,23.37
2023-04-12T11:53:54.008Z,23.56
2023-04-12T11:58:56.252Z,23.63
2023-04-12T12:04:00.314Z,23.14
2023-04-12T12:09:04.364Z,23.38
2023-04-12T12:14:09.292Z,22.83
2023-04-12T12:19:11.361Z,22.78
2023-04-12T12:24:15.118Z,23.26
2023-04-12T12:29:22.456Z,23.63
2023-04-12T12:34:24.676Z,23.11
2023-04-12T12:39:27.230Z,23.14
2023-04-12T12:44:29.353Z,23.34
2023-04-12T12:49:31.779Z,23.39
2023-04-12T12:54:41.273Z,23.45
2023-04-12T12:59:44.029Z,23.71
2023-04-12T13:04:46.470Z,23.64
2023-04-12T13:09:49.009Z,23.50
2023-04-12T13:14:51.203Z,23.80
2023-04-12T13:19:53.611Z,23.40
2023-04-12T13:24:56.396Z,23.48
2023-04-12T13:29:58.623Z,23.03
2023-04-12T13:35:00.977Z,23.11
2023-04-12T13:40:04.138Z,23.76
2023-04-12T13:45:07.506Z,24.40
2023-04-12T13:50:12.396Z,24.37
2023-04-12T13:55:14.500Z,24.15
2023-04-12T14:00:17.276Z,24.14
2023-04-12T14:05:19.604Z,23.34
2023-04-12T14:10:21.934Z,23.36
2023-04-12T14:15:24.170Z,23.14
2023-04-12T14:20:26.606Z,23.23
2023-04-12T14:25:29.065Z,23.32
2023-04-12T14:30:31.628Z,23.61
2023-04-12T14:35:33.710Z,23.57
2023-04-12T14:40:36.755Z,23.10
2023-04-12T14:45:39.113Z,23.09
2023-04-12T14:50:44.172Z,23.40
2023-04-12T14:55:47.188Z,23.16
2023-04-12T15:00:49.905Z,22.72
2023-04-12T15:05:52.056Z,22.23
2023-04-12T15:10:54.135Z,22.14
2023-04-12T15:15:56.517Z,22.01
2023-04-12T15:21:00.532Z,21.77
2023-04-12T15:26:03.736Z,22.10
2023-04-12T15:31:06.596Z,25.85
2023-04-12T15:36:08.937Z,27.86
2023-04-12T15:41:11.447Z,29.07
2023-04-12T15:46:14.793Z,26.83
2023-04-12T15:51:17.044Z,25.06
2023-04-12T15:56:24.357Z,24.01
2023-04-12T16:01:26.794Z,23.49
2023-04-12T16:06:31.864Z,23.69
2023-04-12T16:11:34.406Z,22.82
2023-04-12T16:16:36.976Z,22.82
2023-04-12T16:21:44.574Z,24.02
2023-04-12T16:26:50.220Z,24.46
2023-04-12T16:31:52.560Z,23.04
2023-04-12T16:36:54.820Z,21.99
2023-04-12T16:41:56.994Z,21.36
2023-04-12T16:46:59.624Z,20.99
2023-04-12T16:52:02.784Z,20.53
2023-04-12T16:57:05.310Z,20.37
2023-04-12T17:02:10.842Z,19.86
2023-04-12T17:07:12.999Z,19.96
2023-04-12T17:12:15.078Z,19.64
2023-04-12T17:17:17.177Z,19.64
2023-04-12T17:22:19.567Z,19.28
2023-04-12T17:27:22.158Z,19.21
2023-04-12T17:32:24.339Z,19.27
2023-04-12T17:37:28.044Z,19.36
2023-04-12T17:42:30.284Z,19.38
2023-04-12T17:47:35.372Z,19.49
2023-04-12T17:52:38.293Z,19.35
2023-04-12T17:57:41.010Z,19.41
2023-04-12T18:02:47.382Z,19.24
2023-04-12T18:07:50.156Z,19.12
2023-04-12T18:12:52.562Z,19.10
2023-04-12T18:17:54.720Z,18.89
2023-04-12T18:22:57.171Z,18.90
2023-04-12T18:27:59.410Z,18.93
2023-04-12T18:33:04.115Z,18.68
2023-04-12T18:38:06.414Z,18.46
2023-04-12T18:43:08.828Z,18.41
2023-04-12T18:48:11.213Z,18.37
2023-04-12T18:53:13.566Z,18.27
2023-04-12T18:58:16.425Z,18.36
2023-04-12T19:03:18.948Z,18.17
2023-04-12T19:08:21.591Z,18.14
2023-04-12T19:13:23.847Z,18.09
2023-04-12T19:18:29.798Z,17.92
2023-04-12T19:23:32.631Z,17.94
2023-04-12T19:28:34.775Z,17.69
2023-04-12T19:33:37.511Z,17.59
2023-04-12T19:38:41.738Z,17.59
2023-04-12T19:43:44.150Z,17.56
2023-04-12T19:48:46.785Z,17.33
2023-04-12T19:53:50.946Z,17.11
2023-04-12T19:58:55.249Z,16.99
2023-04-12T20:03:57.456Z,16.95
2023-04-12T20:09:00.944Z,16.63
2023-04-12T20:14:03.442Z,16.68
2023-04-12T20:19:05.650Z,16.65
2023-04-12T20:24:09.080Z,16.62
2023-04-12T20:29:11.512Z,16.60
2023-04-12T20:34:13.704Z,16.64
2023-04-12T20:39:16.695Z,16.51
2023-04-12T20:44:20.006Z,16.54
2023-04-12T20:49:22.219Z,16.28
2023-04-12T20:54:30.339Z,16.39
2023-04-12T20:59:33.750Z,16.46
2023-04-12T21:04:36.648Z,16.36
2023-04-12T21:09:39.540Z,16.29
2023-04-12T21:14:41.666Z,16.32
2023-04-12T21:19:45.225Z,16.37
2023-04-12T21:24:47.434Z,16.20
2023-04-12T21:29:50.500Z,16.08
2023-04-12T21:34:52.702Z,15.91
2023-04-12T21:39:54.884Z,15.41
2023-04-12T21:44:57.076Z,14.16
2023-04-12T21:49:59.428Z,14.05
2023-04-12T21:55:02.177Z,14.03
2023-04-12T22:00:07.560Z,14.31
2023-04-12T22:05:10.256Z,14.29
2023-04-12T22:10:12.604Z,14.28
2023-04-12T22:15:16.749Z,14.71
2023-04-12T22:20:18.953Z,14.82
2023-04-12T22:25:22.302Z,14.70
2023-04-12T22:30:25.392Z,14.67
2023-04-12T22:35:27.620Z,14.66
2023-04-12T22:40:29.744Z,14.68
2023-04-12T22:45:33.576Z,14.89
2023-04-12T22:50:35.778Z,14.64
2023-04-12T22:55:40.103Z,14.83
2023-04-12T23:00:42.221Z,14.68
2023-04-12T23:05:47.636Z,14.69
2023-04-12T23:10:50.251Z,14.61
2023-04-12T23:15:52.464Z,14.52
2023-04-12T23:20:55.375Z,14.54
2023-04-12T23:25:57.566Z,14.55
2023-04-12T23:31:02.632Z,14.53
2023-04-12T23:36:05.848Z,14.42
2023-04-12T23:41:10.517Z,14.37
2023-04-12T23:46:12.822Z,14.37
2023-04-12T23:51:15.443Z,14.38
2023-04-12T23:56:17.764Z,14.38
